Time;durP1;ratioP1;P1;durP2;ratioP2;P2;SDS_P1;SDS_P2;PMS_P1;PMS_P2;Temp;Humidity;BMP_temperature;BMP_pressure;BME280_temperature;BME280_humidity;BME280_pressure;Samples;Min_cycle;Max_cycle;Signal;HPM_P1;HPM_P2
2022/02/23 00:02:08;;;;;;;11.10;2.17;;;9.50;94.90;;;;;;6177108;28;20043;-81
2022/02/23 00:20:59;;;;;;;12.68;2.63;;;9.40;96.20;;;;;;6180046;28;20069;-80
2022/02/23 00:24:01;;;;;;;10.40;1.42;;;9.30;96.50;;;;;;6179569;28;20527;-79
2022/02/23 00:27:03;;;;;;;0.00;0.00;;;9.30;96.80;;;;;;6179698;28;20130;-79
2022/02/23 00:30:06;;;;;;;0.00;0.00;;;9.30;97.60;;;;;;6179521;28;20571;-80
2022/02/23 00:33:08;;;;;;;0.00;0.00;;;9.20;97.80;;;;;;6180112;28;20047;-80
2022/02/23 00:36:11;;;;;;;0.00;0.00;;;9.20;97.80;;;;;;6179050;28;20042;-80
2022/02/23 00:39:13;;;;;;;0.00;0.00;;;9.30;97.70;;;;;;6179846;28;20117;-80
2022/02/23 00:42:15;;;;;;;0.00;0.00;;;9.30;97.80;;;;;;6179945;28;20043;-79
2022/02/23 00:45:16;;;;;;;0.00;0.00;;;9.30;97.90;;;;;;6180036;28;20065;-82
2022/02/23 00:48:18;;;;;;;0.00;0.00;;;9.30;97.70;;;;;;6178269;28;20174;-80
2022/02/23 00:51:22;;;;;;;0.00;0.00;;;9.30;97.50;;;;;;6177218;28;20126;-81
2022/02/23 00:54:23;;;;;;;0.00;0.00;;;9.20;98.70;;;;;;6177404;28;20580;-81
2022/02/23 00:57:25;;;;;;;0.00;0.00;;;9.20;98.90;;;;;;6177542;28;20128;-78
2022/02/23 01:00:27;;;;;;;0.00;0.00;;;9.10;99.20;;;;;;6176985;28;20126;-80
2022/02/23 01:03:29;;;;;;;0.00;0.00;;;9.10;99.30;;;;;;6177048;28;20047;-81
2022/02/23 01:06:32;;;;;;;0.00;0.00;;;9.10;99.30;;;;;;6176973;28;20413;-80
2022/02/23 01:09:34;;;;;;;0.00;0.00;;;9.10;99.60;;;;;;6177968;28;20087;-80
2022/02/23 01:12:36;;;;;;;0.00;0.00;;;9.10;99.60;;;;;;6176408;28;20066;-80
2022/02/23 01:15:38;;;;;;;0.00;0.00;;;9.10;99.60;;;;;;6177242;28;20073;-80
2022/02/23 01:18:40;;;;;;;0.00;0.00;;;9.20;99.70;;;;;;6178315;28;20055;-79
2022/02/23 01:21:43;;;;;;;0.00;0.00;;;9.30;99.90;;;;;;6187798;28;20140;-80
2022/02/23 01:24:45;;;;;;;0.00;0.00;;;9.40;99.80;;;;;;6183275;28;20432;-82
2022/02/23 01:27:47;;;;;;;0.00;0.00;;;9.30;99.60;;;;;;6183590;28;20043;-81
2022/02/23 01:30:49;;;;;;;0.00;0.00;;;9.40;99.60;;;;;;6183737;28;20120;-81
2022/02/23 01:33:51;;;;;;;0.00;0.00;;;9.40;99.60;;;;;;6181305;28;20065;-80
2022/02/23 01:36:54;;;;;;;0.00;0.00;;;9.40;99.70;;;;;;6189105;28;20440;-82
2022/02/23 01:39:55;;;;;;;0.00;0.00;;;9.50;99.50;;;;;;6204713;28;20177;-82
2022/02/23 01:42:57;;;;;;;0.00;0.00;;;9.50;99.50;;;;;;6204313;28;20046;-82
2022/02/23 01:45:59;;;;;;;0.00;0.00;;;9.60;99.30;;;;;;6203713;28;20112;-80
2022/02/23 01:49:01;;;;;;;0.00;0.00;;;9.60;99.30;;;;;;6204017;28;20105;-82
2022/02/23 01:52:05;;;;;;;0.00;0.00;;;9.60;99.00;;;;;;6204128;28;20053;-82
2022/02/23 01:55:08;;;;;;;0.00;0.00;;;9.60;98.90;;;;;;6203279;28;20069;-82
2022/02/23 01:58:11;;;;;;;0.00;0.00;;;9.50;98.80;;;;;;6203923;28;20045;-81
2022/02/23 02:01:13;;;;;;;0.00;0.00;;;9.40;98.60;;;;;;6203831;28;20073;-82
2022/02/23 02:04:16;;;;;;;0.00;0.00;;;9.40;98.70;;;;;;6202402;28;20054;-82
2022/02/23 02:07:19;;;;;;;0.00;0.00;;;9.40;98.90;;;;;;6203108;28;20042;-81
2022/02/23 02:10:21;;;;;;;0.00;0.00;;;9.40;98.70;;;;;;6201104;28;20046;-80
2022/02/23 02:13:23;;;;;;;0.00;0.00;;;9.30;98.50;;;;;;6199944;28;20054;-81
2022/02/23 02:16:24;;;;;;;0.00;0.00;;;9.20;98.50;;;;;;6198744;28;20541;-80
2022/02/23 02:19:26;;;;;;;0.00;0.00;;;9.20;98.70;;;;;;6198595;28;20057;-82
2022/02/23 02:22:29;;;;;;;0.17;0.10;;;9.10;98.60;;;;;;6199632;28;20050;-81
2022/02/23 02:25:33;;;;;;;0.00;0.00;;;9.10;98.80;;;;;;6199741;28;20086;-81
2022/02/23 02:28:35;;;;;;;0.00;0.00;;;9.10;98.80;;;;;;6199113;28;20518;-80
2022/02/23 02:31:36;;;;;;;0.00;0.00;;;9.10;98.80;;;;;;6198966;28;20057;-81
2022/02/23 02:34:39;;;;;;;0.00;0.00;;;9.10;98.70;;;;;;6198923;28;20058;-80
2022/02/23 02:37:42;;;;;;;0.00;0.00;;;9.10;98.60;;;;;;6199136;28;20050;-81
2022/02/23 02:40:44;;;;;;;0.00;0.00;;;9.00;98.60;;;;;;6199813;28;20054;-81
2022/02/23 02:43:46;;;;;;;0.00;0.00;;;9.00;98.70;;;;;;6199192;28;20129;-82
2022/02/23 02:46:48;;;;;;;0.00;0.00;;;8.90;98.80;;;;;;6198784;28;20419;-81
2022/02/23 02:49:49;;;;;;;0.00;0.00;;;8.90;98.80;;;;;;6198551;28;20072;-79
2022/02/23 02:52:53;;;;;;;0.00;0.00;;;9.00;98.70;;;;;;6199178;28;20057;-81
2022/02/23 02:55:54;;;;;;;0.00;0.00;;;8.90;98.60;;;;;;6198388;28;20125;-80
2022/02/23 02:58:56;;;;;;;0.00;0.00;;;8.90;98.50;;;;;;6198546;28;20527;-80
2022/02/23 03:01:58;;;;;;;0.00;0.00;;;8.90;98.70;;;;;;6198338;28;20117;-81
2022/02/23 03:05:00;;;;;;;0.00;0.00;;;9.00;98.60;;;;;;6198945;28;20077;-82
2022/02/23 03:08:03;;;;;;;0.00;0.00;;;9.00;98.50;;;;;;6199286;28;20057;-81
2022/02/23 03:11:05;;;;;;;0.00;0.00;;;8.90;98.30;;;;;;6198950;28;20057;-81
2022/02/23 03:14:07;;;;;;;0.00;0.00;;;8.80;98.20;;;;;;6198976;28;20038;-81
2022/02/23 03:17:09;;;;;;;0.00;0.00;;;8.70;98.20;;;;;;6198816;28;20043;-81
2022/02/23 03:20:12;;;;;;;0.38;0.38;;;8.70;98.40;;;;;;6198413;28;20125;-79
2022/02/23 03:23:15;;;;;;;0.00;0.00;;;8.70;98.20;;;;;;6198832;28;20520;-80
2022/02/23 03:26:16;;;;;;;0.00;0.00;;;8.60;98.10;;;;;;6199198;28;20046;-81
2022/02/23 03:29:18;;;;;;;0.00;0.00;;;8.50;98.10;;;;;;6200038;28;20046;-81
2022/02/23 03:32:20;;;;;;;0.00;0.00;;;8.40;98.30;;;;;;6203633;28;20054;-81
2022/02/23 03:35:27;;;;;;;0.00;0.00;;;8.40;98.70;;;;;;6203540;28;20046;-80
2022/02/23 03:38:30;;;;;;;0.00;0.00;;;8.50;98.80;;;;;;6203709;28;20050;-81
2022/02/23 03:41:32;;;;;;;0.00;0.00;;;8.60;98.80;;;;;;6205043;28;20157;-81
2022/02/23 03:44:34;;;;;;;0.00;0.00;;;8.60;98.70;;;;;;6226886;28;20063;-80
2022/02/23 03:47:36;;;;;;;0.00;0.00;;;8.70;98.80;;;;;;6231804;28;20058;-78
2022/02/23 03:50:39;;;;;;;0.00;0.00;;;8.70;98.80;;;;;;6218498;28;20097;-82
2022/02/23 03:53:43;;;;;;;0.00;0.00;;;8.80;98.80;;;;;;6205342;28;20057;-82
2022/02/23 03:56:46;;;;;;;0.00;0.00;;;8.90;98.70;;;;;;6204983;28;20101;-81
2022/02/23 03:59:48;;;;;;;0.00;0.00;;;8.90;98.70;;;;;;6204085;28;20515;-82
2022/02/23 04:02:49;;;;;;;0.00;0.00;;;8.90;98.70;;;;;;6204989;28;20046;-82
2022/02/23 04:05:51;;;;;;;0.00;0.00;;;9.00;98.60;;;;;;6203860;28;20077;-82
2022/02/23 04:08:55;;;;;;;0.00;0.00;;;9.00;98.60;;;;;;6204585;28;20547;-81
2022/02/23 04:11:57;;;;;;;0.00;0.00;;;9.00;98.50;;;;;;6203956;28;20405;-81
2022/02/23 04:14:59;;;;;;;0.00;0.00;;;9.00;98.50;;;;;;6203728;28;20047;-82
2022/02/23 04:18:01;;;;;;;0.00;0.00;;;9.10;98.50;;;;;;6204536;28;20052;-82
2022/02/23 04:21:04;;;;;;;0.00;0.00;;;9.10;98.40;;;;;;6204094;28;20082;-82
2022/02/23 04:24:07;;;;;;;0.00;0.00;;;9.10;98.30;;;;;;6203734;28;20420;-81
2022/02/23 04:27:09;;;;;;;0.00;0.00;;;9.10;98.30;;;;;;6203204;28;20440;-83
2022/02/23 04:30:11;;;;;;;0.00;0.00;;;9.10;98.30;;;;;;6203107;28;20049;-82
2022/02/23 04:33:15;;;;;;;0.00;0.00;;;9.00;98.20;;;;;;6204227;28;20103;-83
2022/02/23 04:36:16;;;;;;;0.00;0.00;;;9.00;98.10;;;;;;6202778;28;20054;-82
2022/02/23 04:39:19;;;;;;;0.00;0.00;;;8.90;98.10;;;;;;6210101;28;20057;-83
2022/02/23 04:42:21;;;;;;;0.00;0.00;;;8.80;97.90;;;;;;6203933;28;20047;-83
2022/02/23 04:45:23;;;;;;;0.00;0.00;;;8.60;98.10;;;;;;6206171;28;20133;-83
2022/02/23 04:48:25;;;;;;;0.00;0.00;;;8.50;98.30;;;;;;6205547;28;20512;-82
2022/02/23 04:51:29;;;;;;;0.00;0.00;;;8.30;98.50;;;;;;6204671;28;20100;-82
2022/02/23 04:54:34;;;;;;;0.00;0.00;;;8.20;98.50;;;;;;6194017;28;20051;-83
2022/02/23 04:57:36;;;;;;;0.00;0.00;;;8.20;98.50;;;;;;6205008;28;20053;-83
2022/02/23 05:00:38;;;;;;;0.00;0.00;;;8.00;98.40;;;;;;6205187;28;20061;-82
2022/02/23 05:03:40;;;;;;;2.90;2.47;;;7.90;98.30;;;;;;6204622;28;20054;-81
2022/02/23 05:06:42;;;;;;;0.00;0.00;;;7.90;98.50;;;;;;6204493;28;20046;-81
2022/02/23 05:09:45;;;;;;;0.00;0.00;;;7.80;98.50;;;;;;6204828;28;20074;-82
2022/02/23 05:12:47;;;;;;;0.00;0.00;;;7.70;98.40;;;;;;6204920;28;20770;-82
2022/02/23 05:15:49;;;;;;;0.00;0.00;;;7.70;98.40;;;;;;6204242;28;20129;-83
2022/02/23 05:18:52;;;;;;;0.00;0.00;;;7.50;98.20;;;;;;6204480;28;20504;-79
2022/02/23 05:21:54;;;;;;;0.00;0.00;;;7.40;98.00;;;;;;6211698;28;20050;-83
2022/02/23 05:24:57;;;;;;;0.00;0.00;;;7.30;98.20;;;;;;6207638;28;20508;-83
2022/02/23 05:27:59;;;;;;;0.00;0.00;;;7.30;98.60;;;;;;6206806;28;20512;-83
2022/02/23 05:31:01;;;;;;;0.00;0.00;;;7.30;98.60;;;;;;6207356;28;20113;-83
2022/02/23 05:34:03;;;;;;;0.00;0.00;;;7.30;98.70;;;;;;6206778;28;20122;-81
2022/02/23 05:37:05;;;;;;;0.00;0.00;;;7.20;98.80;;;;;;6206574;28;20046;-83
2022/02/23 05:40:09;;;;;;;0.00;0.00;;;7.30;98.80;;;;;;6205866;28;20508;-83
2022/02/23 05:43:11;;;;;;;0.00;0.00;;;7.30;98.70;;;;;;6205784;28;20550;-83
2022/02/23 05:46:13;;;;;;;0.00;0.00;;;7.20;98.30;;;;;;6204389;28;20050;-82
2022/02/23 05:49:15;;;;;;;0.00;0.00;;;7.00;98.10;;;;;;6205882;28;20050;-81
2022/02/23 05:52:19;;;;;;;0.00;0.00;;;6.90;98.10;;;;;;6203643;28;20047;-82
2022/02/23 05:55:22;;;;;;;0.00;0.00;;;6.80;98.20;;;;;;6203913;28;20053;-81
2022/02/23 05:58:24;;;;;;;0.00;0.00;;;6.70;98.30;;;;;;6203693;28;20050;-83
2022/02/23 06:01:26;;;;;;;0.00;0.00;;;6.70;98.30;;;;;;6203963;28;20516;-83
2022/02/23 06:04:28;;;;;;;0.00;0.00;;;6.60;98.10;;;;;;6203683;28;20046;-83
2022/02/23 06:07:30;;;;;;;0.00;0.00;;;6.50;98.10;;;;;;6203824;28;20150;-81
2022/02/23 06:10:33;;;;;;;0.00;0.00;;;6.50;98.10;;;;;;6203149;28;20078;-83
2022/02/23 06:13:36;;;;;;;0.00;0.00;;;6.40;98.00;;;;;;6203456;28;20173;-83
2022/02/23 06:16:38;;;;;;;0.00;0.00;;;6.30;98.00;;;;;;6202246;28;20074;-82
2022/02/23 06:19:40;;;;;;;0.00;0.00;;;6.30;98.10;;;;;;6202519;28;20064;-81
2022/02/23 06:22:42;;;;;;;0.00;0.00;;;6.20;98.10;;;;;;6202725;28;20532;-81
2022/02/23 06:25:45;;;;;;;0.00;0.00;;;6.20;98.10;;;;;;6201982;28;20054;-83
2022/02/23 06:28:47;;;;;;;0.00;0.00;;;6.10;98.20;;;;;;6203011;28;20054;-83
2022/02/23 06:32:02;;;;;;;0.10;0.10;;;6.20;98.30;;;;;;6201669;28;20054;-81
2022/02/23 06:35:05;;;;;;;0.00;0.00;;;6.30;98.40;;;;;;6202152;28;20073;-83
2022/02/23 06:38:06;;;;;;;0.00;0.00;;;6.40;98.50;;;;;;6202622;28;20042;-82
2022/02/23 06:41:14;;;;;;;0.00;0.00;;;6.50;98.60;;;;;;6203009;28;20704;-84
2022/02/23 06:44:19;;;;;;;0.00;0.00;;;6.50;98.70;;;;;;6202305;28;20527;-83
2022/02/23 06:47:22;;;;;;;0.00;0.00;;;6.60;98.80;;;;;;6203528;28;20551;-83
2022/02/23 06:50:23;;;;;;;0.00;0.00;;;6.70;98.80;;;;;;6202173;28;20058;-83
2022/02/23 06:53:26;;;;;;;0.00;0.00;;;6.80;98.90;;;;;;6204576;28;20110;-83
2022/02/23 06:56:29;;;;;;;0.00;0.00;;;6.90;99.00;;;;;;6202963;28;20137;-82
2022/02/23 06:59:31;;;;;;;0.00;0.00;;;7.10;99.00;;;;;;6202281;28;20517;-82
2022/02/23 07:02:32;;;;;;;0.35;0.35;;;7.20;98.90;;;;;;6203805;28;20042;-82
2022/02/23 07:05:35;;;;;;;0.00;0.00;;;7.40;98.90;;;;;;6207794;28;20054;-82
2022/02/23 07:08:37;;;;;;;0.00;0.00;;;7.50;98.80;;;;;;6208045;28;20054;-83
2022/02/23 07:11:40;;;;;;;0.00;0.00;;;7.60;98.60;;;;;;6208808;28;20050;-83
2022/02/23 07:14:42;;;;;;;0.00;0.00;;;7.60;98.60;;;;;;6209483;28;20463;-81
2022/02/23 07:17:44;;;;;;;0.00;0.00;;;7.70;98.60;;;;;;6210027;28;20054;-80
2022/02/23 07:20:46;;;;;;;0.00;0.00;;;7.80;98.60;;;;;;6209680;28;20052;-83
2022/02/23 07:23:47;;;;;;;0.00;0.00;;;7.90;98.50;;;;;;6207804;28;20052;-83
2022/02/23 07:26:50;;;;;;;0.00;0.00;;;8.00;98.30;;;;;;6208093;28;20516;-83
2022/02/23 07:29:52;;;;;;;0.00;0.00;;;8.00;98.60;;;;;;6208241;28;20050;-83
2022/02/23 07:32:54;;;;;;;0.00;0.00;;;8.10;98.40;;;;;;6209598;28;20081;-83
2022/02/23 07:35:56;;;;;;;0.00;0.00;;;8.30;98.50;;;;;;6207376;28;20082;-81
2022/02/23 07:38:58;;;;;;;0.00;0.00;;;8.50;98.50;;;;;;6208578;28;20121;-81
2022/02/23 07:42:01;;;;;;;0.00;0.00;;;8.70;98.40;;;;;;6208667;28;20042;-84
2022/02/23 07:45:03;;;;;;;0.00;0.00;;;8.80;98.50;;;;;;6207818;28;20057;-83
2022/02/23 07:48:05;;;;;;;0.00;0.00;;;9.00;98.40;;;;;;6206171;28;20047;-83
2022/02/23 07:51:07;;;;;;;0.00;0.00;;;9.20;98.30;;;;;;6208017;28;20129;-81
2022/02/23 07:54:09;;;;;;;0.00;0.00;;;9.40;98.30;;;;;;6206425;28;20048;-80
2022/02/23 07:57:12;;;;;;;0.00;0.00;;;9.60;98.10;;;;;;6206597;28;20054;-80
2022/02/23 08:00:18;;;;;;;0.00;0.00;;;9.70;98.10;;;;;;6205537;28;20055;-79
2022/02/23 08:03:19;;;;;;;0.90;0.90;;;9.90;98.00;;;;;;6206041;28;20046;-81
2022/02/23 08:06:21;;;;;;;3.22;3.03;;;10.00;97.90;;;;;;6206112;28;20053;-80
2022/02/23 08:09:23;;;;;;;0.00;0.00;;;10.20;98.00;;;;;;6207854;28;20093;-81
2022/02/23 08:12:27;;;;;;;0.00;0.00;;;10.40;97.90;;;;;;6206155;28;20042;-79
2022/02/23 08:22:10;;;;;;;0.00;0.00;;;11.10;97.50;;;;;;6205250;28;20039;-81
2022/02/23 08:25:12;;;;;;;0.00;0.00;;;11.20;97.10;;;;;;6191582;28;20113;-80
2022/02/23 08:28:16;;;;;;;0.00;0.00;;;11.30;97.10;;;;;;6195057;28;20046;-82
2022/02/23 08:31:18;;;;;;;0.00;0.00;;;11.50;96.90;;;;;;6193303;28;20050;-83
2022/02/23 08:34:20;;;;;;;0.00;0.00;;;11.70;97.40;;;;;;6202675;28;20129;-80
2022/02/23 08:37:22;;;;;;;0.00;0.00;;;12.20;97.50;;;;;;6201986;28;20137;-79
2022/02/23 08:40:24;;;;;;;0.00;0.00;;;12.60;96.70;;;;;;6205092;28;20049;-80
2022/02/23 08:43:28;;;;;;;0.00;0.00;;;13.00;96.90;;;;;;6188150;28;20198;-79
2022/02/23 08:46:30;;;;;;;4.50;1.60;;;13.80;97.10;;;;;;6180460;28;20074;-79
2022/02/23 08:49:31;;;;;;;12.52;2.78;;;14.70;96.80;;;;;;6180157;28;20050;-79
2022/02/23 08:52:33;;;;;;;12.18;3.00;;;15.40;96.90;;;;;;6183684;28;20042;-81
2022/02/23 08:55:35;;;;;;;11.25;4.78;;;16.30;96.60;;;;;;6180778;28;20106;-80
2022/02/23 08:58:38;;;;;;;9.05;2.88;;;16.90;96.40;;;;;;6180603;28;20039;-80
2022/02/23 09:01:40;;;;;;;10.05;2.38;;;17.60;95.90;;;;;;6203745;28;20065;-80
2022/02/23 09:04:43;;;;;;;11.65;3.35;;;18.20;93.90;;;;;;6205025;28;20056;-80
2022/02/23 09:07:45;;;;;;;7.43;2.55;;;18.80;92.60;;;;;;6205079;28;20579;-80
2022/02/23 09:10:46;;;;;;;4.28;1.58;;;19.50;91.60;;;;;;6203253;28;20050;-80
2022/02/23 09:13:49;;;;;;;3.10;1.30;;;19.80;84.00;;;;;;6204125;28;20058;-80
2022/02/23 09:16:51;;;;;;;7.90;1.50;;;20.00;84.00;;;;;;6205265;28;20058;-79
2022/02/23 09:19:55;;;;;;;6.88;1.88;;;20.20;78.30;;;;;;6208614;28;20439;-80
2022/02/23 09:22:56;;;;;;;5.63;1.65;;;20.00;77.40;;;;;;6203768;28;20046;-81
2022/02/23 09:25:58;;;;;;;4.85;1.65;;;18.90;77.60;;;;;;6203792;28;20046;-81
2022/02/23 09:29:02;;;;;;;7.18;1.45;;;18.00;80.50;;;;;;6199079;28;20048;-80
2022/02/23 09:32:04;;;;;;;5.88;1.75;;;17.00;83.00;;;;;;6204078;28;20508;-80
2022/02/23 09:35:06;;;;;;;9.63;2.35;;;16.20;84.90;;;;;;6205300;28;20050;-81
2022/02/23 09:38:08;;;;;;;4.53;2.15;;;15.60;87.10;;;;;;6205429;28;20046;-80
2022/02/23 09:41:10;;;;;;;7.68;2.67;;;15.10;87.90;;;;;;6204981;28;20058;-80
2022/02/23 09:44:16;;;;;;;13.85;2.45;;;14.70;89.40;;;;;;6186662;28;20949;-81
2022/02/23 09:47:18;;;;;;;9.10;2.35;;;14.50;90.30;;;;;;6156605;28;20054;-81
2022/02/23 09:50:21;;;;;;;12.73;2.17;;;14.40;90.40;;;;;;6155280;28;20071;-80
2022/02/23 09:53:24;;;;;;;6.13;1.58;;;14.40;90.60;;;;;;6156887;28;20062;-82
2022/02/23 09:56:26;;;;;;;6.47;1.88;;;14.50;90.40;;;;;;6157806;28;20057;-81
2022/02/23 09:59:29;;;;;;;10.23;4.68;;;14.70;90.50;;;;;;6174328;28;20052;-82
2022/02/23 10:02:34;;;;;;;7.53;2.42;;;14.80;90.20;;;;;;6204814;28;20049;-83
2022/02/23 10:05:39;;;;;;;4.90;1.88;;;14.80;90.00;;;;;;6206353;28;20046;-83
2022/02/23 10:08:41;;;;;;;6.93;1.88;;;14.80;89.30;;;;;;6205697;28;20138;-81
2022/02/23 10:11:46;;;;;;;7.78;2.00;;;14.70;89.10;;;;;;6204769;28;20046;-82
2022/02/23 10:14:52;;;;;;;4.05;1.45;;;14.60;90.00;;;;;;6204239;28;20050;-82
2022/02/23 10:17:53;;;;;;;3.90;1.60;;;14.40;90.20;;;;;;6204483;28;20097;-81
2022/02/23 10:20:56;;;;;;;6.88;1.98;;;14.30;89.90;;;;;;6204856;28;20049;-81
2022/02/23 10:24:20;;;;;;;8.18;1.90;;;14.30;89.80;;;;;;6205024;28;20050;-81
2022/02/23 10:27:22;;;;;;;6.22;1.70;;;14.60;88.90;;;;;;6208548;28;20065;-82
2022/02/23 10:30:29;;;;;;;4.15;1.50;;;14.60;88.20;;;;;;6198403;28;20188;-81
2022/02/23 10:33:32;;;;;;;12.60;2.17;;;15.00;86.80;;;;;;6204321;28;20579;-80
2022/02/23 10:36:34;;;;;;;4.97;1.58;;;15.30;86.60;;;;;;6202147;28;20046;-81
2022/02/23 10:39:43;;;;;;;7.32;1.42;;;15.20;85.00;;;;;;6201255;28;20038;-80
2022/02/23 10:42:44;;;;;;;;;;;15.20;84.90;;;;;;6199020;28;20046;-81
2022/02/23 10:45:51;;;;;;;4.90;1.50;;;15.20;86.20;;;;;;6177668;28;20019;-81
2022/02/23 10:48:56;;;;;;;4.43;1.30;;;15.20;84.80;;;;;;6178561;28;20050;-81
2022/02/23 10:52:06;;;;;;;5.28;1.55;;;15.40;84.60;;;;;;6177954;28;20043;-81
2022/02/23 10:55:16;;;;;;;6.10;1.00;;;15.50;84.20;;;;;;6178305;28;20047;-81
2022/02/23 10:58:17;;;;;;;3.50;1.45;;;15.50;82.60;;;;;;6178130;28;20047;-80
2022/02/23 11:01:20;;;;;;;5.93;1.58;;;15.50;82.90;;;;;;6199519;28;20050;-80
2022/02/23 11:04:22;;;;;;;5.07;1.20;;;15.30;83.40;;;;;;6202461;28;20122;-81
2022/02/23 11:07:24;;;;;;;10.23;1.65;;;15.40;83.90;;;;;;6201264;28;20098;-81
2022/02/23 11:10:26;;;;;;;6.35;1.08;;;15.90;79.20;;;;;;6201138;28;20516;-81
2022/02/23 11:13:28;;;;;;;6.35;1.40;;;16.60;78.50;;;;;;6203219;28;20054;-81
2022/02/23 11:16:32;;;;;;;6.32;1.35;;;17.30;74.60;;;;;;6202142;28;20046;-80
2022/02/23 11:19:39;;;;;;;5.65;0.95;;;17.90;70.90;;;;;;6201280;28;20049;-80
2022/02/23 11:22:41;;;;;;;9.70;1.35;;;18.40;67.70;;;;;;6201369;28;20074;-80
2022/02/23 11:25:43;;;;;;;3.72;0.88;;;18.90;67.30;;;;;;6201433;28;20050;-80
2022/02/23 11:28:51;;;;;;;6.45;1.23;;;19.30;64.30;;;;;;6196372;28;20051;-80
2022/02/23 11:31:55;;;;;;;8.68;1.65;;;19.50;63.00;;;;;;6201178;28;20138;-80
2022/02/23 11:34:57;;;;;;;4.80;0.90;;;19.90;62.00;;;;;;6201220;28;20768;-80
2022/02/23 11:37:59;;;;;;;7.10;0.90;;;20.20;61.40;;;;;;6201742;28;20046;-80
2022/02/23 11:41:00;;;;;;;5.28;0.82;;;20.60;60.40;;;;;;6202198;28;20056;-80
2022/02/23 11:44:11;;;;;;;3.55;0.73;;;20.90;58.20;;;;;;6200295;28;20125;-80
2022/02/23 11:47:17;;;;;;;5.90;1.20;;;21.00;57.40;;;;;;6201007;28;20189;-82
2022/02/23 11:50:21;;;;;;;6.82;1.17;;;21.00;57.30;;;;;;6201397;28;20419;-79
2022/02/23 11:53:37;;;;;;;7.18;1.75;;;21.20;58.10;;;;;;6206009;28;20419;-81
2022/02/23 11:57:05;;;;;;;3.15;0.60;;;21.40;58.20;;;;;;6205770;28;20074;-80
2022/02/23 12:00:09;;;;;;;4.25;1.00;;;21.70;55.60;;;;;;6200302;28;20535;-79
2022/02/23 12:03:22;;;;;;;7.40;1.00;;;21.90;52.30;;;;;;6205242;28;20053;-81
2022/02/23 12:06:24;;;;;;;5.68;0.98;;;22.00;51.70;;;;;;6204800;28;20181;-82
2022/02/23 12:09:44;;;;;;;8.05;1.08;;;22.10;51.90;;;;;;6174688;28;20051;-81
2022/02/23 12:12:47;;;;;;;5.88;0.88;;;22.30;50.20;;;;;;6181004;28;20463;-81
2022/02/23 12:15:49;;;;;;;4.10;1.10;;;22.50;48.40;;;;;;6180007;28;20531;-80
2022/02/23 12:18:56;;;;;;;3.70;0.57;;;22.60;46.30;;;;;;6180157;28;20049;-80
2022/02/23 12:22:00;;;;;;;5.28;0.90;;;22.60;47.30;;;;;;6181775;28;20043;-80
2022/02/23 12:25:04;;;;;;;6.63;1.17;;;22.60;46.00;;;;;;6180863;28;20137;-81
2022/02/23 12:28:06;;;;;;;6.88;0.98;;;22.60;45.80;;;;;;6182496;28;20074;-81
2022/02/23 12:31:11;;;;;;;5.80;1.30;;;22.60;46.20;;;;;;6201087;28;20408;-81
2022/02/23 12:34:18;;;;;;;9.02;1.15;;;22.70;46.70;;;;;;6207471;28;20100;-80
2022/02/23 12:37:23;;;;;;;5.75;1.13;;;22.80;44.50;;;;;;6204530;28;20059;-81
2022/02/23 12:40:25;;;;;;;3.53;1.00;;;22.90;46.80;;;;;;6204135;28;20517;-81
2022/02/23 12:43:28;;;;;;;3.67;0.95;;;23.10;45.60;;;;;;6203490;28;20042;-81
2022/02/23 12:46:32;;;;;;;8.20;1.30;;;23.20;46.00;;;;;;6196706;28;20081;-81
2022/02/23 12:49:36;;;;;;;4.95;1.58;;;23.20;46.80;;;;;;6204687;28;20068;-80
2022/02/23 12:52:37;;;;;;;5.93;1.30;;;23.30;46.70;;;;;;6205366;28;20042;-81
2022/02/23 12:55:39;;;;;;;5.57;1.08;;;23.20;44.20;;;;;;6204405;28;20046;-81
2022/02/23 12:58:41;;;;;;;6.57;1.05;;;23.20;45.20;;;;;;6197322;28;20047;-81
2022/02/23 13:01:44;;;;;;;3.03;1.00;;;23.30;44.80;;;;;;6203518;28;20047;-81
2022/02/23 13:04:48;;;;;;;3.17;0.68;;;23.30;45.90;;;;;;6203522;28;20056;-81
2022/02/23 13:07:50;;;;;;;7.35;0.88;;;23.40;44.60;;;;;;6203407;28;20074;-81
2022/02/23 13:10:59;;;;;;;6.60;0.77;;;23.40;44.60;;;;;;6203118;28;20124;-80
2022/02/23 13:14:04;;;;;;;4.43;0.70;;;23.50;43.40;;;;;;6203154;28;20504;-80
2022/02/23 13:17:08;;;;;;;4.85;0.70;;;23.50;43.50;;;;;;6206039;28;20493;-81
2022/02/23 13:20:12;;;;;;;8.43;1.08;;;23.50;44.40;;;;;;6180877;28;20101;-82
2022/02/23 13:23:19;;;;;;;5.68;1.63;;;23.60;44.10;;;;;;6179954;28;20051;-80
2022/02/23 13:26:28;;;;;;;4.68;1.30;;;23.70;44.20;;;;;;6179510;28;20047;-80
2022/02/23 13:29:29;;;;;;;3.92;0.90;;;23.90;43.60;;;;;;6187588;28;20078;-81
2022/02/23 13:32:34;;;;;;;4.10;1.02;;;23.80;43.20;;;;;;6203788;28;20132;-81
2022/02/23 13:35:39;;;;;;;2.63;0.93;;;23.60;41.50;;;;;;6204128;28;20065;-81
2022/02/23 13:38:40;;;;;;;3.22;1.08;;;23.40;42.60;;;;;;6204703;28;20122;-81
2022/02/23 13:41:52;;;;;;;2.88;0.82;;;23.40;42.30;;;;;;6203310;28;20050;-80
2022/02/23 13:44:54;;;;;;;3.90;1.73;;;23.60;42.50;;;;;;6203627;28;20057;-81
2022/02/23 13:47:58;;;;;;;8.07;1.30;;;23.80;42.10;;;;;;6203494;28;20534;-81
2022/02/23 13:51:01;;;;;;;5.45;1.20;;;23.70;42.00;;;;;;6203038;28;20552;-81
2022/02/23 13:54:07;;;;;;;4.90;1.33;;;23.80;42.30;;;;;;6202403;28;20046;-80
2022/02/23 13:57:14;;;;;;;3.13;0.80;;;23.90;41.10;;;;;;6204668;28;20054;-82
2022/02/23 14:00:22;;;;;;;7.07;1.13;;;23.90;40.10;;;;;;6201150;28;20050;-84
2022/02/23 14:03:26;;;;;;;;;;;24.00;41.40;;;;;;6211779;28;20057;-82
2022/02/23 14:06:36;;;;;;;8.27;1.45;;;24.00;43.40;;;;;;6211068;28;19969;-81
2022/02/23 14:09:39;;;;;;;4.28;0.95;;;23.90;40.00;;;;;;6208874;28;20145;-82
2022/02/23 14:12:41;;;;;;;13.02;1.45;;;23.90;39.50;;;;;;6208138;28;20492;-82
2022/02/23 14:15:45;;;;;;;4.85;0.75;;;23.90;39.40;;;;;;6208963;28;20073;-81
2022/02/23 14:18:51;;;;;;;4.32;1.10;;;24.00;39.70;;;;;;6202900;28;20130;-82
2022/02/23 14:21:55;;;;;;;7.18;4.72;;;23.90;39.10;;;;;;6179359;28;20046;-81
2022/02/23 14:25:05;;;;;;;4.28;1.23;;;23.90;38.60;;;;;;6180881;28;20054;-81
2022/02/23 14:28:07;;;;;;;1.85;0.60;;;23.90;36.60;;;;;;6178415;28;20047;-82
2022/02/23 14:31:30;;;;;;;4.43;2.00;;;23.90;37.50;;;;;;6197438;28;20508;-81
2022/02/23 14:34:32;;;;;;;2.53;0.70;;;23.80;37.40;;;;;;6207240;28;20508;-83
2022/02/23 14:37:37;;;;;;;3.63;1.05;;;23.60;37.90;;;;;;6186766;28;20282;-80
2022/02/23 14:40:38;;;;;;;7.50;2.25;;;23.40;37.90;;;;;;6180028;28;20043;-80
2022/02/23 14:43:41;;;;;;;3.58;0.73;;;23.40;37.50;;;;;;6181294;28;20057;-82
2022/02/23 14:46:43;;;;;;;3.33;0.75;;;23.40;37.90;;;;;;6180884;28;20047;-80
2022/02/23 14:56:05;;;;;;;2.85;0.70;;;23.40;36.80;;;;;;6179240;28;20047;-79
2022/02/23 14:59:12;;;;;;;4.30;0.90;;;23.40;36.40;;;;;;6207881;22;20109;-81
2022/02/23 15:02:17;;;;;;;4.55;0.68;;;23.30;36.40;;;;;;6164427;28;20070;-80
2022/02/23 15:05:19;;;;;;;5.72;1.50;;;23.30;36.90;;;;;;6157380;28;20078;-80
2022/02/23 15:08:21;;;;;;;9.02;1.15;;;23.20;37.10;;;;;;6158104;28;20047;-81
2022/02/23 15:11:24;;;;;;;5.88;1.30;;;23.00;36.80;;;;;;6154255;28;20090;-80
2022/02/23 15:14:27;;;;;;;6.28;1.00;;;22.80;36.60;;;;;;6154543;28;20048;-81
2022/02/23 15:17:29;;;;;;;5.78;1.90;;;22.80;37.10;;;;;;6154567;29;20062;-79
2022/02/23 15:20:31;;;;;;;4.05;0.70;;;22.60;37.00;;;;;;6145296;28;20050;-79
2022/02/23 15:23:32;;;;;;;6.68;1.80;;;22.50;37.10;;;;;;6129983;29;20573;-79
2022/02/23 15:26:36;;;;;;;3.92;0.90;;;22.30;37.80;;;;;;6134390;29;20052;-79
2022/02/23 15:29:37;;;;;;;2.90;0.57;;;22.20;38.00;;;;;;6142871;28;20055;-79
2022/02/23 15:32:39;;;;;;;2.83;1.38;;;22.00;37.80;;;;;;6143755;29;20580;-80
2022/02/23 15:35:42;;;;;;;28.80;20.45;;;21.70;38.40;;;;;;6158645;29;20125;-80
2022/02/23 15:38:44;;;;;;;6.95;1.58;;;21.60;39.00;;;;;;6158681;28;20047;-79
2022/02/23 15:41:47;;;;;;;6.35;0.77;;;21.40;38.80;;;;;;6158270;28;20084;-80
2022/02/23 15:44:49;;;;;;;68.38;43.08;;;21.40;39.20;;;;;;6159429;28;20425;-79
2022/02/23 15:47:51;;;;;;;30.95;17.10;;;21.30;39.10;;;;;;6158438;29;20051;-79
2022/02/23 15:50:53;;;;;;;49.28;30.52;;;21.30;39.30;;;;;;6158260;28;20047;-79
2022/02/23 15:53:55;;;;;;;120.22;64.07;;;21.30;39.40;;;;;;6158916;28;20055;-80
2022/02/23 15:56:58;;;;;;;32.13;18.17;;;21.10;39.20;;;;;;6159891;28;20059;-80
2022/02/23 16:00:01;;;;;;;77.43;34.92;;;20.70;39.70;;;;;;6152209;28;20126;-80
2022/02/23 16:03:02;;;;;;;66.35;30.15;;;20.20;40.30;;;;;;6157911;28;20676;-80
2022/02/23 16:06:04;;;;;;;35.42;17.63;;;19.70;41.30;;;;;;6158090;29;20047;-80
2022/02/23 16:09:07;;;;;;;17.55;9.30;;;19.10;42.50;;;;;;6159456;28;20090;-80
2022/02/23 16:12:10;;;;;;;14.65;6.75;;;18.70;43.10;;;;;;6158396;29;20432;-80
2022/02/23 16:15:12;;;;;;;21.77;9.77;;;18.20;44.00;;;;;;6158914;28;20083;-79
2022/02/23 16:18:14;;;;;;;11.65;5.30;;;17.70;44.80;;;;;;6158782;28;20110;-80
2022/02/23 16:21:18;;;;;;;10.18;4.57;;;17.30;45.70;;;;;;6152194;28;20052;-80
2022/02/23 16:24:21;;;;;;;14.57;6.63;;;17.00;47.00;;;;;;6134029;29;20052;-78
2022/02/23 16:27:26;;;;;;;7.93;2.40;;;16.60;47.70;;;;;;6133539;29;20454;-82